sensor_id;sensor_type;location;lat;lon;timestamp;P1;durP1;ratioP1;P2;durP2;ratioP2
5209;SDS011;2624;48.048;11.706;2023-06-10T00:01:32;13.53;;;5.70;;
5209;SDS011;2624;48.048;11.706;2023-06-10T00:06:34;5.53;;;5.03;;
5209;SDS011;2624;48.048;11.706;2023-06-10T00:11:37;6.87;;;5.80;;
5209;SDS011;2624;48.048;11.706;2023-06-10T00:16:39;6.73;;;4.80;;
5209;SDS011;2624;48.048;11.706;2023-06-10T00:21:45;5.03;;;4.60;;
5209;SDS011;2624;48.048;11.706;2023-06-10T00:26:48;5.53;;;4.90;;
5209;SDS011;2624;48.048;11.706;2023-06-10T00:31:49;3.77;;;3.53;;
5209;SDS011;2624;48.048;11.706;2023-06-10T00:36:53;6.23;;;4.73;;
5209;SDS011;2624;48.048;11.706;2023-06-10T00:41:56;12.30;;;5.20;;
5209;SDS011;2624;48.048;11.706;2023-06-10T00:46:58;6.53;;;4.27;;
5209;SDS011;2624;48.048;11.706;2023-06-10T00:52:00;5.23;;;4.53;;
5209;SDS011;2624;48.048;11.706;2023-06-10T00:57:04;5.33;;;4.93;;
5209;SDS011;2624;48.048;11.706;2023-06-10T01:02:07;5.60;;;4.40;;
5209;SDS011;2624;48.048;11.706;2023-06-10T01:07:10;5.43;;;4.90;;
5209;SDS011;2624;48.048;11.706;2023-06-10T01:12:23;5.03;;;4.63;;
5209;SDS011;2624;48.048;11.706;2023-06-10T01:17:31;16.00;;;5.80;;
5209;SDS011;2624;48.048;11.706;2023-06-10T01:22:35;6.33;;;5.57;;
5209;SDS011;2624;48.048;11.706;2023-06-10T01:27:36;7.43;;;5.53;;
5209;SDS011;2624;48.048;11.706;2023-06-10T01:32:43;5.43;;;4.90;;
5209;SDS011;2624;48.048;11.706;2023-06-10T01:37:48;6.07;;;5.13;;
5209;SDS011;2624;48.048;11.706;2023-06-10T01:42:53;5.43;;;4.90;;
5209;SDS011;2624;48.048;11.706;2023-06-10T01:47:55;4.20;;;3.90;;
5209;SDS011;2624;48.048;11.706;2023-06-10T01:52:59;4.23;;;3.90;;
5209;SDS011;2624;48.048;11.706;2023-06-10T01:58:01;6.60;;;4.60;;
5209;SDS011;2624;48.048;11.706;2023-06-10T02:03:02;5.17;;;4.73;;
5209;SDS011;2624;48.048;11.706;2023-06-10T02:08:06;5.07;;;4.60;;
5209;SDS011;2624;48.048;11.706;2023-06-10T02:13:07;6.00;;;4.63;;
5209;SDS011;2624;48.048;11.706;2023-06-10T02:18:09;5.57;;;5.07;;
5209;SDS011;2624;48.048;11.706;2023-06-10T02:23:13;4.90;;;4.50;;
5209;SDS011;2624;48.048;11.706;2023-06-10T02:28:15;5.27;;;4.13;;
5209;SDS011;2624;48.048;11.706;2023-06-10T02:33:16;6.27;;;5.70;;
5209;SDS011;2624;48.048;11.706;2023-06-10T02:38:19;5.33;;;4.80;;
5209;SDS011;2624;48.048;11.706;2023-06-10T02:43:21;4.13;;;3.80;;
5209;SDS011;2624;48.048;11.706;2023-06-10T02:48:23;8.33;;;4.50;;
5209;SDS011;2624;48.048;11.706;2023-06-10T02:53:26;4.53;;;4.23;;
5209;SDS011;2624;48.048;11.706;2023-06-10T02:58:28;4.27;;;3.97;;
5209;SDS011;2624;48.048;11.706;2023-06-10T03:03:30;4.37;;;4.00;;
5209;SDS011;2624;48.048;11.706;2023-06-10T03:08:35;4.50;;;4.10;;
5209;SDS011;2624;48.048;11.706;2023-06-10T03:13:38;6.13;;;4.40;;
5209;SDS011;2624;48.048;11.706;2023-06-10T03:18:39;4.70;;;4.17;;
5209;SDS011;2624;48.048;11.706;2023-06-10T03:23:42;4.83;;;4.07;;
5209;SDS011;2624;48.048;11.706;2023-06-10T03:28:44;4.90;;;4.50;;
5209;SDS011;2624;48.048;11.706;2023-06-10T03:33:46;3.87;;;3.57;;
5209;SDS011;2624;48.048;11.706;2023-06-10T03:38:49;4.20;;;3.83;;
5209;SDS011;2624;48.048;11.706;2023-06-10T03:43:51;4.27;;;3.80;;
5209;SDS011;2624;48.048;11.706;2023-06-10T03:48:53;7.97;;;4.27;;
5209;SDS011;2624;48.048;11.706;2023-06-10T03:53:57;6.73;;;4.73;;
5209;SDS011;2624;48.048;11.706;2023-06-10T03:58:59;6.20;;;4.50;;
5209;SDS011;2624;48.048;11.706;2023-06-10T04:04:00;9.03;;;4.30;;
5209;SDS011;2624;48.048;11.706;2023-06-10T04:09:03;4.93;;;4.53;;
5209;SDS011;2624;48.048;11.706;2023-06-10T04:14:05;5.27;;;4.77;;
5209;SDS011;2624;48.048;11.706;2023-06-10T04:19:07;5.30;;;4.80;;
5209;SDS011;2624;48.048;11.706;2023-06-10T04:24:10;9.33;;;5.37;;
5209;SDS011;2624;48.048;11.706;2023-06-10T04:29:12;3.97;;;3.63;;
5209;SDS011;2624;48.048;11.706;2023-06-10T04:34:14;4.57;;;4.33;;
5209;SDS011;2624;48.048;11.706;2023-06-10T04:39:17;4.70;;;4.40;;
5209;SDS011;2624;48.048;11.706;2023-06-10T04:44:19;5.13;;;4.73;;
5209;SDS011;2624;48.048;11.706;2023-06-10T04:49:21;5.10;;;4.60;;
5209;SDS011;2624;48.048;11.706;2023-06-10T04:54:24;6.00;;;5.20;;
5209;SDS011;2624;48.048;11.706;2023-06-10T04:59:26;5.13;;;4.63;;
5209;SDS011;2624;48.048;11.706;2023-06-10T05:04:28;7.83;;;5.57;;
5209;SDS011;2624;48.048;11.706;2023-06-10T05:09:31;8.67;;;7.20;;
5209;SDS011;2624;48.048;11.706;2023-06-10T05:14:33;9.03;;;6.50;;
5209;SDS011;2624;48.048;11.706;2023-06-10T05:19:34;9.80;;;6.30;;
5209;SDS011;2624;48.048;11.706;2023-06-10T05:24:38;13.67;;;7.20;;
5209;SDS011;2624;48.048;11.706;2023-06-10T05:29:41;6.80;;;6.10;;
5209;SDS011;2624;48.048;11.706;2023-06-10T05:34:43;9.50;;;7.37;;
5209;SDS011;2624;48.048;11.706;2023-06-10T05:39:46;7.60;;;6.37;;
5209;SDS011;2624;48.048;11.706;2023-06-10T05:44:48;11.60;;;8.10;;
5209;SDS011;2624;48.048;11.706;2023-06-10T05:49:49;11.93;;;7.87;;
5209;SDS011;2624;48.048;11.706;2023-06-10T05:54:53;11.80;;;7.30;;
5209;SDS011;2624;48.048;11.706;2023-06-10T05:59:55;7.27;;;6.30;;
5209;SDS011;2624;48.048;11.706;2023-06-10T06:04:57;8.27;;;7.03;;
5209;SDS011;2624;48.048;11.706;2023-06-10T06:10:00;7.37;;;6.30;;
5209;SDS011;2624;48.048;11.706;2023-06-10T06:15:03;8.43;;;6.17;;
5209;SDS011;2624;48.048;11.706;2023-06-10T06:20:06;6.87;;;6.17;;
5209;SDS011;2624;48.048;11.706;2023-06-10T06:25:09;13.30;;;6.63;;
5209;SDS011;2624;48.048;11.706;2023-06-10T06:30:11;9.40;;;6.40;;
5209;SDS011;2624;48.048;11.706;2023-06-10T06:35:13;10.37;;;7.97;;
5209;SDS011;2624;48.048;11.706;2023-06-10T06:40:16;8.20;;;6.20;;
5209;SDS011;2624;48.048;11.706;2023-06-10T06:45:18;10.27;;;7.00;;
5209;SDS011;2624;48.048;11.706;2023-06-10T06:50:20;9.00;;;6.20;;
5209;SDS011;2624;48.048;11.706;2023-06-10T06:55:23;7.77;;;6.20;;
5209;SDS011;2624;48.048;11.706;2023-06-10T07:00:25;8.93;;;6.97;;
5209;SDS011;2624;48.048;11.706;2023-06-10T07:05:27;5.73;;;4.60;;
5209;SDS011;2624;48.048;11.706;2023-06-10T07:10:30;7.23;;;4.93;;
5209;SDS011;2624;48.048;11.706;2023-06-10T07:15:31;5.40;;;4.57;;
5209;SDS011;2624;48.048;11.706;2023-06-10T07:20:33;5.67;;;5.00;;
5209;SDS011;2624;48.048;11.706;2023-06-10T07:25:36;6.27;;;4.77;;
5209;SDS011;2624;48.048;11.706;2023-06-10T07:30:38;6.73;;;5.53;;
5209;SDS011;2624;48.048;11.706;2023-06-10T07:35:40;5.10;;;4.33;;
5209;SDS011;2624;48.048;11.706;2023-06-10T07:40:45;4.70;;;4.30;;
5209;SDS011;2624;48.048;11.706;2023-06-10T07:45:47;8.93;;;4.00;;
5209;SDS011;2624;48.048;11.706;2023-06-10T07:50:48;6.37;;;5.60;;
5209;SDS011;2624;48.048;11.706;2023-06-10T07:55:51;5.50;;;4.97;;
5209;SDS011;2624;48.048;11.706;2023-06-10T08:00:53;5.97;;;5.07;;
5209;SDS011;2624;48.048;11.706;2023-06-10T08:05:55;4.63;;;4.23;;
5209;SDS011;2624;48.048;11.706;2023-06-10T08:10:58;4.00;;;3.70;;
5209;SDS011;2624;48.048;11.706;2023-06-10T08:16:00;5.00;;;4.60;;
5209;SDS011;2624;48.048;11.706;2023-06-10T08:21:02;3.40;;;3.10;;
5209;SDS011;2624;48.048;11.706;2023-06-10T08:26:05;4.00;;;3.70;;
5209;SDS011;2624;48.048;11.706;2023-06-10T08:31:07;3.47;;;3.27;;
5209;SDS011;2624;48.048;11.706;2023-06-10T08:36:08;4.03;;;3.70;;
5209;SDS011;2624;48.048;11.706;2023-06-10T08:41:12;4.10;;;3.70;;
5209;SDS011;2624;48.048;11.706;2023-06-10T08:46:15;4.17;;;3.87;;
5209;SDS011;2624;48.048;11.706;2023-06-10T08:51:17;3.00;;;2.80;;
5209;SDS011;2624;48.048;11.706;2023-06-10T08:56:21;3.07;;;2.87;;
5209;SDS011;2624;48.048;11.706;2023-06-10T09:01:26;3.47;;;2.90;;
5209;SDS011;2624;48.048;11.706;2023-06-10T09:06:28;3.00;;;2.80;;
5209;SDS011;2624;48.048;11.706;2023-06-10T09:11:33;3.27;;;3.07;;
5209;SDS011;2624;48.048;11.706;2023-06-10T09:16:35;3.63;;;3.33;;
5209;SDS011;2624;48.048;11.706;2023-06-10T09:21:38;2.80;;;2.60;;
5209;SDS011;2624;48.048;11.706;2023-06-10T09:26:42;3.20;;;2.90;;
5209;SDS011;2624;48.048;11.706;2023-06-10T09:31:45;3.60;;;2.60;;
5209;SDS011;2624;48.048;11.706;2023-06-10T09:36:47;3.10;;;2.60;;
5209;SDS011;2624;48.048;11.706;2023-06-10T09:41:50;2.80;;;2.70;;
5209;SDS011;2624;48.048;11.706;2023-06-10T09:46:52;4.60;;;4.20;;
5209;SDS011;2624;48.048;11.706;2023-06-10T09:51:54;3.50;;;3.20;;
5209;SDS011;2624;48.048;11.706;2023-06-10T09:57:00;3.23;;;2.90;;
5209;SDS011;2624;48.048;11.706;2023-06-10T10:02:13;4.90;;;2.97;;
5209;SDS011;2624;48.048;11.706;2023-06-10T10:07:15;3.07;;;2.77;;
5209;SDS011;2624;48.048;11.706;2023-06-10T10:12:18;4.40;;;3.73;;
5209;SDS011;2624;48.048;11.706;2023-06-10T10:17:20;3.60;;;3.30;;
5209;SDS011;2624;48.048;11.706;2023-06-10T10:22:25;3.00;;;2.80;;
5209;SDS011;2624;48.048;11.706;2023-06-10T10:27:30;3.57;;;3.20;;
5209;SDS011;2624;48.048;11.706;2023-06-10T10:32:37;2.57;;;2.47;;
5209;SDS011;2624;48.048;11.706;2023-06-10T10:37:44;2.27;;;1.83;;
5209;SDS011;2624;48.048;11.706;2023-06-10T10:42:48;3.30;;;3.00;;
5209;SDS011;2624;48.048;11.706;2023-06-10T10:47:52;2.60;;;2.40;;
5209;SDS011;2624;48.048;11.706;2023-06-10T10:52:56;6.00;;;2.33;;
5209;SDS011;2624;48.048;11.706;2023-06-10T10:58:03;5.73;;;2.63;;
5209;SDS011;2624;48.048;11.706;2023-06-10T11:03:06;5.27;;;2.60;;
5209;SDS011;2624;48.048;11.706;2023-06-10T11:08:09;2.37;;;2.20;;
5209;SDS011;2624;48.048;11.706;2023-06-10T11:13:14;2.40;;;2.30;;
5209;SDS011;2624;48.048;11.706;2023-06-10T11:18:20;4.67;;;2.80;;
5209;SDS011;2624;48.048;11.706;2023-06-10T11:29:05;3.07;;;2.87;;
5209;SDS011;2624;48.048;11.706;2023-06-10T11:34:09;2.17;;;2.07;;
5209;SDS011;2624;48.048;11.706;2023-06-10T11:39:11;2.23;;;2.13;;
5209;SDS011;2624;48.048;11.706;2023-06-10T11:44:15;1.80;;;1.70;;
5209;SDS011;2624;48.048;11.706;2023-06-10T11:49:17;2.63;;;2.43;;
5209;SDS011;2624;48.048;11.706;2023-06-10T11:54:18;2.53;;;2.43;;
5209;SDS011;2624;48.048;11.706;2023-06-10T11:59:26;1.47;;;1.47;;
5209;SDS011;2624;48.048;11.706;2023-06-10T12:04:28;2.17;;;1.97;;
5209;SDS011;2624;48.048;11.706;2023-06-10T12:09:30;1.47;;;1.47;;
5209;SDS011;2624;48.048;11.706;2023-06-10T12:14:53;2.47;;;2.17;;
5209;SDS011;2624;48.048;11.706;2023-06-10T12:19:56;2.43;;;2.30;;
5209;SDS011;2624;48.048;11.706;2023-06-10T12:24:58;3.70;;;2.70;;
5209;SDS011;2624;48.048;11.706;2023-06-10T12:30:03;3.60;;;3.30;;
5209;SDS011;2624;48.048;11.706;2023-06-10T12:35:07;2.70;;;2.50;;
5209;SDS011;2624;48.048;11.706;2023-06-10T12:40:10;2.27;;;2.17;;
5209;SDS011;2624;48.048;11.706;2023-06-10T12:45:14;2.17;;;2.07;;
5209;SDS011;2624;48.048;11.706;2023-06-10T12:50:15;3.00;;;2.70;;
5209;SDS011;2624;48.048;11.706;2023-06-10T12:55:17;2.90;;;2.70;;
5209;SDS011;2624;48.048;11.706;2023-06-10T13:00:20;2.80;;;2.70;;
5209;SDS011;2624;48.048;11.706;2023-06-10T13:05:25;2.33;;;2.17;;
5209;SDS011;2624;48.048;11.706;2023-06-10T13:10:27;3.60;;;3.40;;
5209;SDS011;2624;48.048;11.706;2023-06-10T13:15:30;3.83;;;3.53;;
5209;SDS011;2624;48.048;11.706;2023-06-10T13:20:32;3.30;;;3.20;;
5209;SDS011;2624;48.048;11.706;2023-06-10T13:25:34;3.83;;;3.50;;
5209;SDS011;2624;48.048;11.706;2023-06-10T13:30:37;3.60;;;3.30;;
5209;SDS011;2624;48.048;11.706;2023-06-10T13:35:39;3.40;;;3.20;;
5209;SDS011;2624;48.048;11.706;2023-06-10T13:40:41;2.93;;;2.70;;
5209;SDS011;2624;48.048;11.706;2023-06-10T13:45:44;3.00;;;2.80;;
5209;SDS011;2624;48.048;11.706;2023-06-10T13:50:46;2.10;;;2.00;;
5209;SDS011;2624;48.048;11.706;2023-06-10T13:55:48;2.87;;;2.67;;
5209;SDS011;2624;48.048;11.706;2023-06-10T14:00:51;3.10;;;2.80;;
5209;SDS011;2624;48.048;11.706;2023-06-10T14:05:53;2.77;;;2.57;;
5209;SDS011;2624;48.048;11.706;2023-06-10T14:10:55;2.70;;;2.60;;
5209;SDS011;2624;48.048;11.706;2023-06-10T14:15:58;3.00;;;2.90;;
5209;SDS011;2624;48.048;11.706;2023-06-10T14:21:02;3.10;;;2.87;;
5209;SDS011;2624;48.048;11.706;2023-06-10T14:26:04;3.60;;;2.30;;
5209;SDS011;2624;48.048;11.706;2023-06-10T14:31:08;2.50;;;2.40;;
5209;SDS011;2624;48.048;11.706;2023-06-10T14:36:11;2.80;;;2.60;;
5209;SDS011;2624;48.048;11.706;2023-06-10T14:41:13;2.40;;;2.30;;
5209;SDS011;2624;48.048;11.706;2023-06-10T14:46:16;2.13;;;2.03;;
5209;SDS011;2624;48.048;11.706;2023-06-10T14:51:18;2.50;;;2.40;;
5209;SDS011;2624;48.048;11.706;2023-06-10T14:56:20;2.47;;;2.27;;
5209;SDS011;2624;48.048;11.706;2023-06-10T15:01:23;3.20;;;3.00;;
5209;SDS011;2624;48.048;11.706;2023-06-10T15:06:25;3.20;;;3.10;;
5209;SDS011;2624;48.048;11.706;2023-06-10T15:11:27;3.77;;;3.57;;
5209;SDS011;2624;48.048;11.706;2023-06-10T15:16:31;4.47;;;2.90;;
5209;SDS011;2624;48.048;11.706;2023-06-10T15:21:33;3.13;;;2.90;;
5209;SDS011;2624;48.048;11.706;2023-06-10T15:26:35;3.30;;;3.20;;
5209;SDS011;2624;48.048;11.706;2023-06-10T15:31:38;4.03;;;3.20;;
5209;SDS011;2624;48.048;11.706;2023-06-10T15:36:40;3.83;;;3.63;;
5209;SDS011;2624;48.048;11.706;2023-06-10T15:41:41;3.23;;;3.00;;
5209;SDS011;2624;48.048;11.706;2023-06-10T15:46:44;4.07;;;3.40;;
5209;SDS011;2624;48.048;11.706;2023-06-10T15:51:46;2.87;;;2.67;;
5209;SDS011;2624;48.048;11.706;2023-06-10T15:56:48;4.47;;;4.07;;
5209;SDS011;2624;48.048;11.706;2023-06-10T16:01:51;3.57;;;3.37;;
5209;SDS011;2624;48.048;11.706;2023-06-10T16:06:53;5.40;;;4.07;;
5209;SDS011;2624;48.048;11.706;2023-06-10T16:11:56;3.63;;;3.33;;
5209;SDS011;2624;48.048;11.706;2023-06-10T16:16:59;3.00;;;2.80;;
5209;SDS011;2624;48.048;11.706;2023-06-10T16:22:00;12.20;;;4.00;;
5209;SDS011;2624;48.048;11.706;2023-06-10T16:27:02;5.67;;;5.17;;
5209;SDS011;2624;48.048;11.706;2023-06-10T16:32:08;4.07;;;3.87;;
5209;SDS011;2624;48.048;11.706;2023-06-10T16:37:11;5.20;;;4.70;;
5209;SDS011;2624;48.048;11.706;2023-06-10T16:42:14;9.63;;;7.00;;
5209;SDS011;2624;48.048;11.706;2023-06-10T16:47:17;5.10;;;4.70;;
5209;SDS011;2624;48.048;11.706;2023-06-10T16:52:18;5.10;;;4.80;;
5209;SDS011;2624;48.048;11.706;2023-06-10T16:57:20;4.43;;;4.00;;
5209;SDS011;2624;48.048;11.706;2023-06-10T17:02:23;5.10;;;4.67;;
5209;SDS011;2624;48.048;11.706;2023-06-10T17:07:26;4.27;;;3.90;;
5209;SDS011;2624;48.048;11.706;2023-06-10T17:12:30;3.93;;;3.73;;
5209;SDS011;2624;48.048;11.706;2023-06-10T17:17:33;3.33;;;3.13;;
5209;SDS011;2624;48.048;11.706;2023-06-10T17:22:34;3.43;;;3.10;;
5209;SDS011;2624;48.048;11.706;2023-06-10T17:27:36;3.40;;;3.10;;
5209;SDS011;2624;48.048;11.706;2023-06-10T17:32:39;2.83;;;2.63;;
5209;SDS011;2624;48.048;11.706;2023-06-10T17:37:41;3.30;;;2.93;;
5209;SDS011;2624;48.048;11.706;2023-06-10T17:42:43;3.90;;;3.67;;
5209;SDS011;2624;48.048;11.706;2023-06-10T17:47:47;3.63;;;3.27;;
5209;SDS011;2624;48.048;11.706;2023-06-10T17:52:49;3.47;;;3.27;;
5209;SDS011;2624;48.048;11.706;2023-06-10T17:57:50;3.77;;;3.50;;
5209;SDS011;2624;48.048;11.706;2023-06-10T18:02:53;3.10;;;2.90;;
5209;SDS011;2624;48.048;11.706;2023-06-10T18:07:55;3.63;;;3.20;;
5209;SDS011;2624;48.048;11.706;2023-06-10T18:12:57;3.87;;;3.57;;
5209;SDS011;2624;48.048;11.706;2023-06-10T18:18:01;3.87;;;3.60;;
5209;SDS011;2624;48.048;11.706;2023-06-10T18:23:03;3.30;;;3.00;;
5209;SDS011;2624;48.048;11.706;2023-06-10T18:28:04;4.63;;;3.37;;
5209;SDS011;2624;48.048;11.706;2023-06-10T18:33:07;5.10;;;4.03;;
5209;SDS011;2624;48.048;11.706;2023-06-10T18:38:09;3.87;;;3.57;;
5209;SDS011;2624;48.048;11.706;2023-06-10T18:43:11;4.60;;;4.20;;
5209;SDS011;2624;48.048;11.706;2023-06-10T18:48:14;5.90;;;4.10;;
5209;SDS011;2624;48.048;11.706;2023-06-10T18:53:16;5.77;;;4.67;;
5209;SDS011;2624;48.048;11.706;2023-06-10T18:58:18;6.80;;;4.87;;
5209;SDS011;2624;48.048;11.706;2023-06-10T19:03:21;4.40;;;4.00;;
5209;SDS011;2624;48.048;11.706;2023-06-10T19:08:23;6.67;;;4.93;;
5209;SDS011;2624;48.048;11.706;2023-06-10T19:13:25;4.70;;;4.33;;
5209;SDS011;2624;48.048;11.706;2023-06-10T19:18:29;5.10;;;4.60;;
5209;SDS011;2624;48.048;11.706;2023-06-10T19:23:30;5.73;;;5.20;;
5209;SDS011;2624;48.048;11.706;2023-06-10T19:28:32;6.37;;;4.53;;
5209;SDS011;2624;48.048;11.706;2023-06-10T19:33:35;6.07;;;4.97;;
5209;SDS011;2624;48.048;11.706;2023-06-10T19:38:37;5.10;;;4.67;;
5209;SDS011;2624;48.048;11.706;2023-06-10T19:43:39;5.10;;;4.67;;
5209;SDS011;2624;48.048;11.706;2023-06-10T19:48:43;4.93;;;4.60;;
5209;SDS011;2624;48.048;11.706;2023-06-10T19:53:45;5.23;;;4.80;;
5209;SDS011;2624;48.048;11.706;2023-06-10T19:58:47;5.00;;;4.70;;
5209;SDS011;2624;48.048;11.706;2023-06-10T20:03:50;4.30;;;4.00;;
5209;SDS011;2624;48.048;11.706;2023-06-10T20:08:52;4.80;;;4.40;;
5209;SDS011;2624;48.048;11.706;2023-06-10T20:13:54;4.77;;;4.37;;
5209;SDS011;2624;48.048;11.706;2023-06-10T20:18:57;4.43;;;4.13;;
5209;SDS011;2624;48.048;11.706;2023-06-10T20:23:59;5.03;;;4.63;;
5209;SDS011;2624;48.048;11.706;2023-06-10T20:29:01;5.27;;;4.50;;
5209;SDS011;2624;48.048;11.706;2023-06-10T20:34:04;6.23;;;5.53;;
5209;SDS011;2624;48.048;11.706;2023-06-10T20:39:06;8.00;;;4.50;;
5209;SDS011;2624;48.048;11.706;2023-06-10T20:44:08;4.63;;;3.97;;
5209;SDS011;2624;48.048;11.706;2023-06-10T20:49:12;5.73;;;4.40;;
5209;SDS011;2624;48.048;11.706;2023-06-10T20:54:14;5.27;;;4.57;;
5209;SDS011;2624;48.048;11.706;2023-06-10T20:59:16;4.97;;;4.57;;
5209;SDS011;2624;48.048;11.706;2023-06-10T21:04:19;4.63;;;4.23;;
5209;SDS011;2624;48.048;11.706;2023-06-10T21:09:21;5.03;;;4.63;;
5209;SDS011;2624;48.048;11.706;2023-06-10T21:14:23;6.90;;;5.10;;
5209;SDS011;2624;48.048;11.706;2023-06-10T21:19:26;4.40;;;4.10;;
5209;SDS011;2624;48.048;11.706;2023-06-10T21:24:27;4.60;;;4.00;;
5209;SDS011;2624;48.048;11.706;2023-06-10T21:29:29;5.47;;;4.40;;
5209;SDS011;2624;48.048;11.706;2023-06-10T21:34:32;5.47;;;4.87;;
5209;SDS011;2624;48.048;11.706;2023-06-10T21:39:34;5.23;;;4.73;;
5209;SDS011;2624;48.048;11.706;2023-06-10T21:44:36;4.27;;;3.90;;
5209;SDS011;2624;48.048;11.706;2023-06-10T21:49:39;4.70;;;4.30;;
5209;SDS011;2624;48.048;11.706;2023-06-10T21:54:40;6.40;;;4.17;;
5209;SDS011;2624;48.048;11.706;2023-06-10T21:59:42;8.30;;;4.77;;
5209;SDS011;2624;48.048;11.706;2023-06-10T22:04:46;5.13;;;4.00;;
5209;SDS011;2624;48.048;11.706;2023-06-10T22:09:48;5.00;;;4.27;;
5209;SDS011;2624;48.048;11.706;2023-06-10T22:14:50;4.70;;;3.80;;
5209;SDS011;2624;48.048;11.706;2023-06-10T22:19:53;5.97;;;5.40;;
5209;SDS011;2624;48.048;11.706;2023-06-10T22:24:55;4.70;;;4.30;;
5209;SDS011;2624;48.048;11.706;2023-06-10T22:29:57;5.23;;;4.83;;
5209;SDS011;2624;48.048;11.706;2023-06-10T22:35:01;4.97;;;4.57;;
5209;SDS011;2624;48.048;11.706;2023-06-10T22:40:06;5.27;;;4.63;;
5209;SDS011;2624;48.048;11.706;2023-06-10T22:45:09;5.27;;;4.77;;
5209;SDS011;2624;48.048;11.706;2023-06-10T22:50:12;5.23;;;4.73;;
5209;SDS011;2624;48.048;11.706;2023-06-10T22:55:13;6.80;;;5.10;;
5209;SDS011;2624;48.048;11.706;2023-06-10T23:00:16;7.40;;;5.43;;
5209;SDS011;2624;48.048;11.706;2023-06-10T23:05:19;4.50;;;4.20;;
5209;SDS011;2624;48.048;11.706;2023-06-10T23:10:21;4.30;;;4.10;;
5209;SDS011;2624;48.048;11.706;2023-06-10T23:15:22;5.57;;;5.17;;
5209;SDS011;2624;48.048;11.706;2023-06-10T23:20:25;5.10;;;4.77;;
5209;SDS011;2624;48.048;11.706;2023-06-10T23:25:27;4.50;;;4.20;;
5209;SDS011;2624;48.048;11.706;2023-06-10T23:30:29;4.90;;;4.50;;
5209;SDS011;2624;48.048;11.706;2023-06-10T23:35:32;5.23;;;4.73;;
5209;SDS011;2624;48.048;11.706;2023-06-10T23:40:34;5.90;;;4.60;;
5209;SDS011;2624;48.048;11.706;2023-06-10T23:45:36;9.47;;;4.63;;
5209;SDS011;2624;48.048;11.706;2023-06-10T23:50:39;8.83;;;4.43;;
5209;SDS011;2624;48.048;11.706;2023-06-10T23:55:41;6.00;;;5.40;;
